Time;durP1;ratioP1;P1;durP2;ratioP2;P2;SDS_P1;SDS_P2;PMS_P1;PMS_P2;Temp;Humidity;BMP_temperature;BMP_pressure;BME280_temperature;BME280_humidity;BME280_pressure;Samples;Min_cycle;Max_cycle;Signal;HPM_P1;HPM_P2
2023/01/13 00:01:15;0.00;0.00;0.62;0.00;0.00;0.62;1.90;1.20;;;23.80;29.80;;;;;;2251645;61;20363;-59
2023/01/13 00:04:00;0.00;0.00;0.62;0.00;0.00;0.62;3.20;1.23;;;23.80;29.80;;;;;;2251083;61;20358;-60
2023/01/13 00:06:46;0.00;0.00;0.62;0.00;0.00;0.62;1.77;0.90;;;23.80;30.40;;;;;;2251869;61;20362;-62
2023/01/13 00:09:31;0.00;0.00;0.62;0.00;0.00;0.62;2.30;1.40;;;23.80;29.80;;;;;;2251925;61;20470;-59
2023/01/13 00:12:16;0.00;0.00;0.62;0.00;0.00;0.62;1.80;1.10;;;23.80;29.90;;;;;;2251618;61;20385;-58
2023/01/13 00:15:01;0.00;0.00;0.62;0.00;0.00;0.62;1.70;1.10;;;23.80;29.90;;;;;;2251736;61;20895;-55
2023/01/13 00:17:47;0.00;0.00;0.62;0.00;0.00;0.62;1.63;1.10;;;23.80;29.90;;;;;;2252127;61;21039;-54
2023/01/13 00:20:32;0.00;0.00;0.62;0.00;0.00;0.62;1.60;1.10;;;23.80;29.90;;;;;;2252216;61;20374;-56
2023/01/13 00:23:18;0.00;0.00;0.62;0.00;0.00;0.62;2.40;1.00;;;23.80;29.90;;;;;;2252091;61;20783;-58
2023/01/13 00:26:06;0.00;0.00;0.62;0.00;0.00;0.62;1.70;0.90;;;23.80;29.90;;;;;;2252175;61;20363;-58
2023/01/13 00:28:56;0.00;0.00;0.62;0.00;0.00;0.62;1.80;1.10;;;23.80;29.90;;;;;;2252055;61;20445;-59
2023/01/13 00:31:40;0.00;0.00;0.62;0.00;0.00;0.62;3.17;1.47;;;23.90;30.00;;;;;;2252416;61;20359;-60
2023/01/13 00:34:25;0.00;0.00;0.62;0.00;0.00;0.62;1.80;1.10;;;23.90;30.00;;;;;;2252052;61;20435;-55
2023/01/13 00:37:11;0.00;0.00;0.62;0.00;0.00;0.62;1.90;1.13;;;23.90;30.00;;;;;;2252002;61;20374;-59
2023/01/13 00:39:59;0.00;0.00;0.62;0.00;0.00;0.62;2.10;1.20;;;23.90;30.00;;;;;;2251557;61;20895;-61
2023/01/13 00:45:50;0.00;0.00;0.62;0.00;0.00;0.62;2.03;1.10;;;23.90;29.90;;;;;;2251251;61;20381;-57
2023/01/13 00:48:36;0.00;0.00;0.62;0.00;0.00;0.62;1.87;1.00;;;23.90;29.90;;;;;;2251658;61;20402;-56
2023/01/13 00:51:21;0.00;0.00;0.62;0.00;0.00;0.62;1.70;0.90;;;23.90;29.90;;;;;;2251593;61;20966;-55
2023/01/13 00:54:06;0.00;0.00;0.62;0.00;0.00;0.62;1.77;0.97;;;23.90;30.00;;;;;;2251853;61;20454;-56
2023/01/13 00:56:52;0.00;0.00;0.62;0.00;0.00;0.62;1.50;1.00;;;23.90;30.00;;;;;;2249869;61;20459;-52
2023/01/13 00:59:38;0.00;0.00;0.62;0.00;0.00;0.62;1.97;1.27;;;23.90;29.90;;;;;;2250957;61;20371;-60
2023/01/13 01:02:26;0.00;0.00;0.62;0.00;0.00;0.62;1.77;1.10;;;23.90;29.90;;;;;;2251714;61;20414;-63
2023/01/13 01:05:13;0.00;0.00;0.62;0.00;0.00;0.62;1.67;1.23;;;23.90;29.90;;;;;;2249268;61;20370;-66
2023/01/13 01:07:58;0.00;0.00;0.62;0.00;0.00;0.62;1.40;0.80;;;24.00;29.90;;;;;;2251916;61;20957;-65
2023/01/13 01:10:44;0.00;0.00;0.62;0.00;0.00;0.62;1.70;0.90;;;23.90;29.90;;;;;;2252454;61;20776;-60
2023/01/13 01:13:30;0.00;0.00;0.62;0.00;0.00;0.62;1.80;0.90;;;23.90;29.90;;;;;;2251737;61;20386;-59
2023/01/13 01:16:17;0.00;0.00;0.62;0.00;0.00;0.62;2.00;1.07;;;24.00;29.90;;;;;;2252168;61;20358;-58
2023/01/13 01:19:04;0.00;0.00;0.62;0.00;0.00;0.62;1.90;0.77;;;24.00;29.90;;;;;;2251414;61;20850;-56
2023/01/13 01:21:49;0.00;0.00;0.62;0.00;0.00;0.62;1.70;1.00;;;24.00;29.90;;;;;;2251796;61;20928;-59
2023/01/13 01:24:34;0.00;0.00;0.62;0.00;0.00;0.62;2.03;1.07;;;24.00;29.90;;;;;;2252284;61;20417;-53
2023/01/13 01:27:20;0.00;0.00;0.62;0.00;0.00;0.62;1.60;0.90;;;24.00;29.90;;;;;;2251548;61;20399;-57
2023/01/13 01:30:10;0.00;0.00;0.62;0.00;0.00;0.62;2.07;0.80;;;24.00;29.90;;;;;;2251874;61;20413;-53
2023/01/13 01:32:56;0.00;0.00;0.62;0.00;0.00;0.62;1.60;0.80;;;24.00;29.80;;;;;;2251842;61;20418;-58
2023/01/13 01:35:41;0.00;0.00;0.62;0.00;0.00;0.62;2.53;0.80;;;24.00;29.80;;;;;;2252054;61;20358;-57
2023/01/13 01:38:26;0.00;0.00;0.62;0.00;0.00;0.62;1.93;1.00;;;24.00;29.80;;;;;;2252158;61;20941;-58
2023/01/13 01:41:14;0.00;0.00;0.62;0.00;0.00;0.62;2.30;1.10;;;24.00;29.70;;;;;;2251882;61;20842;-59
2023/01/13 01:44:06;0.00;0.00;0.62;0.00;0.00;0.62;1.83;0.90;;;24.00;29.70;;;;;;2250472;61;20358;-57
2023/01/13 01:46:53;0.00;0.00;0.62;0.00;0.00;0.62;1.40;0.70;;;24.00;29.70;;;;;;2250462;61;20363;-60
2023/01/13 01:49:39;0.00;0.00;0.62;0.00;0.00;0.62;1.40;0.80;;;24.00;29.70;;;;;;2251290;61;20426;-57
2023/01/13 01:52:28;0.00;0.00;0.62;0.00;0.00;0.62;1.40;0.80;;;24.00;29.70;;;;;;2252130;61;20389;-56
2023/01/13 01:55:17;0.00;0.00;0.62;0.00;0.00;0.62;1.70;0.90;;;24.00;29.70;;;;;;2251182;61;20450;-57
2023/01/13 01:58:07;0.00;0.00;0.62;0.00;0.00;0.62;1.40;0.80;;;24.00;30.20;;;;;;2251734;61;20390;-57
2023/01/13 02:00:52;0.00;0.00;0.62;0.00;0.00;0.62;1.60;0.80;;;24.00;29.70;;;;;;2252091;61;20363;-54
2023/01/13 02:03:43;0.00;0.00;0.62;0.00;0.00;0.62;1.60;0.90;;;24.00;29.70;;;;;;2251354;61;20385;-55
2023/01/13 02:06:29;0.00;0.00;0.62;0.00;0.00;0.62;1.67;1.00;;;24.00;29.70;;;;;;2294800;58;20442;-56
2023/01/13 02:09:15;0.00;0.00;0.62;0.00;0.00;0.62;1.73;0.80;;;24.00;29.70;;;;;;2250702;61;20362;-59
2023/01/13 02:15:07;0.00;0.00;0.62;0.00;0.00;0.62;1.60;0.90;;;24.00;29.70;;;;;;2251311;61;20362;-56
2023/01/13 02:18:35;0.00;0.00;0.62;0.00;0.00;0.62;1.73;0.93;;;24.00;29.70;;;;;;2251183;61;20975;-59
2023/01/13 02:21:57;0.00;0.00;0.62;0.00;0.00;0.62;1.30;0.80;;;24.00;29.70;;;;;;2238655;61;20373;-59
2023/01/13 02:25:17;0.00;0.00;0.62;0.00;0.00;0.62;1.40;0.67;;;23.90;29.60;;;;;;2251409;61;20407;-55
2023/01/13 02:28:28;0.00;0.00;0.62;0.00;0.00;0.62;1.60;0.80;;;23.90;29.60;;;;;;2250956;61;20546;-54
2023/01/13 02:34:24;0.00;0.00;0.62;0.00;0.00;0.62;1.30;0.70;;;23.90;29.60;;;;;;2251681;61;20386;-61
2023/01/13 02:37:16;0.00;0.00;0.62;0.00;0.00;0.62;1.47;0.70;;;23.90;29.60;;;;;;2251792;61;20362;-58
2023/01/13 02:40:07;0.00;0.00;0.62;0.00;0.00;0.62;1.30;0.70;;;23.90;30.00;;;;;;2251536;61;20407;-58
2023/01/13 02:46:09;0.00;0.00;0.62;0.00;0.00;0.62;1.37;0.70;;;23.90;29.50;;;;;;2251953;61;20693;-55
2023/01/13 02:49:00;0.00;0.00;0.62;0.00;0.00;0.62;1.40;0.63;;;23.90;29.50;;;;;;2250855;61;20587;-55
2023/01/13 02:51:47;0.00;0.00;0.62;0.00;0.00;0.62;1.70;0.90;;;23.90;29.50;;;;;;2251954;61;20467;-58
2023/01/13 02:54:34;0.00;0.00;0.62;0.00;0.00;0.62;1.83;0.90;;;23.90;29.50;;;;;;2251674;61;21033;-59
2023/01/13 02:57:20;0.00;0.00;0.62;0.00;0.00;0.62;2.13;1.10;;;23.90;29.40;;;;;;2251807;61;20406;-59
2023/01/13 03:00:10;0.00;0.00;0.62;0.00;0.00;0.62;1.40;0.70;;;23.90;29.40;;;;;;2252061;61;20413;-57
2023/01/13 03:02:55;0.00;0.00;0.62;0.00;0.00;0.62;1.50;0.80;;;23.90;29.40;;;;;;2251538;61;20406;-59
2023/01/13 03:05:43;0.00;0.00;0.62;0.00;0.00;0.62;1.33;0.70;;;23.90;29.30;;;;;;2251741;61;20359;-57
2023/01/13 03:08:42;0.00;0.00;0.62;0.00;0.00;0.62;1.97;0.70;;;23.90;29.30;;;;;;2251861;61;20501;-54
2023/01/13 03:11:31;0.00;0.00;0.62;0.00;0.00;0.62;1.50;0.80;;;23.90;29.30;;;;;;2251689;61;20909;-58
2023/01/13 03:14:33;0.00;0.00;0.62;0.00;0.00;0.62;1.30;0.70;;;23.80;29.30;;;;;;2251804;61;20420;-54
2023/01/13 03:17:31;0.00;0.00;0.62;0.00;0.00;0.62;1.80;0.90;;;23.80;29.30;;;;;;2251181;61;20380;-53
2023/01/13 03:20:22;0.00;0.00;0.62;0.00;0.00;0.62;2.27;1.20;;;23.80;29.30;;;;;;2255307;61;20412;-56
2023/01/13 03:23:17;0.00;0.00;0.62;0.00;0.00;0.62;2.67;1.00;;;23.80;29.50;;;;;;2255403;61;20834;-59
2023/01/13 03:26:11;0.00;0.00;0.62;0.00;0.00;0.62;2.30;1.20;;;23.70;28.60;;;;;;2252781;61;20798;-55
2023/01/13 03:29:01;0.00;0.00;0.62;0.00;0.00;0.62;2.30;1.00;;;23.70;28.50;;;;;;2251473;61;20356;-58
2023/01/13 03:31:53;0.00;0.00;0.62;0.00;0.00;0.62;2.67;1.47;;;23.60;28.20;;;;;;2251632;61;20410;-59
2023/01/13 03:34:44;0.00;0.00;0.62;0.00;0.00;0.62;2.13;0.97;;;23.50;28.20;;;;;;2251310;61;20626;-56
2023/01/13 03:37:33;0.00;0.00;0.62;0.00;0.00;0.62;3.10;1.40;;;23.50;28.20;;;;;;2251792;61;20417;-59
2023/01/13 03:40:24;0.00;0.00;0.62;0.00;0.00;0.62;4.30;1.50;;;23.40;27.90;;;;;;2252031;61;20359;-55
2023/01/13 03:46:25;0.00;0.00;0.62;0.00;0.00;0.62;2.13;1.13;;;23.30;27.60;;;;;;2252106;61;20418;-57
2023/01/13 03:49:13;0.00;0.00;0.62;0.00;0.00;0.62;4.20;1.60;;;23.20;27.50;;;;;;2252029;61;20787;-57
2023/01/13 03:52:04;0.00;0.00;0.62;0.00;0.00;0.62;5.23;1.50;;;23.10;27.30;;;;;;2252066;61;20800;-59
2023/01/13 03:54:54;0.00;0.00;0.62;0.00;0.00;0.62;4.60;1.47;;;23.10;27.20;;;;;;2252204;61;20773;-56
2023/01/13 03:57:48;0.00;0.00;0.62;0.00;0.00;0.62;3.47;1.40;;;23.00;26.90;;;;;;2251956;61;20750;-57
2023/01/13 04:00:41;0.00;0.00;0.62;0.00;0.00;0.62;3.77;2.00;;;22.90;26.90;;;;;;2252635;61;20724;-58
2023/01/13 04:03:32;0.00;0.00;0.62;0.00;0.00;0.62;5.57;2.30;;;22.90;27.00;;;;;;2251814;61;21078;-58
2023/01/13 04:06:33;0.00;0.00;0.62;0.00;0.00;0.62;4.70;2.10;;;22.80;27.00;;;;;;2252613;61;20497;-58
2023/01/13 04:09:27;0.00;0.00;0.62;0.00;0.00;0.62;4.40;1.73;;;22.80;27.20;;;;;;2252054;61;20833;-55
2023/01/13 04:12:19;0.00;0.00;0.62;0.00;0.00;0.62;3.70;1.60;;;22.70;27.10;;;;;;2252005;61;20390;-54
2023/01/13 04:15:07;0.00;0.00;0.62;0.00;0.00;0.62;4.63;1.80;;;22.70;27.20;;;;;;2252517;61;20363;-58
2023/01/13 04:17:53;0.00;0.00;0.62;0.00;0.00;0.62;4.30;1.70;;;22.70;27.10;;;;;;2251838;61;20805;-54
2023/01/13 04:20:40;0.00;0.00;0.62;0.00;0.00;0.62;5.37;1.43;;;22.60;27.10;;;;;;2252555;61;20410;-57
2023/01/13 04:23:26;0.00;0.00;0.62;0.00;0.00;0.62;4.53;2.20;;;22.60;27.20;;;;;;2252200;61;20390;-58
2023/01/13 04:26:11;0.00;0.00;0.62;0.00;0.00;0.62;3.33;1.60;;;22.60;27.20;;;;;;2252486;61;20406;-57
2023/01/13 04:28:56;0.00;0.00;0.62;0.00;0.00;0.62;2.57;1.20;;;22.60;27.20;;;;;;2252287;61;20449;-56
2023/01/13 04:31:42;0.00;0.00;0.62;0.00;0.00;0.62;5.37;1.90;;;22.50;27.20;;;;;;2251702;61;20363;-58
2023/01/13 04:34:27;0.00;0.00;0.62;0.00;0.00;0.62;3.90;1.80;;;22.50;27.20;;;;;;2252273;61;20780;-54
2023/01/13 04:37:13;0.00;0.00;0.62;0.00;0.00;0.62;7.07;2.00;;;22.50;27.80;;;;;;2251958;61;20382;-60
2023/01/13 04:39:58;0.00;0.00;0.62;0.00;0.00;0.62;5.90;2.10;;;22.40;27.10;;;;;;2252110;61;20370;-56
2023/01/13 04:42:44;0.00;0.00;0.62;0.00;0.00;0.62;3.20;1.77;;;22.40;27.10;;;;;;2252407;61;20426;-55
2023/01/13 04:45:28;0.00;0.00;0.62;0.00;0.00;0.62;4.47;1.63;;;22.40;27.20;;;;;;2251726;61;20394;-52
2023/01/13 04:48:15;0.00;0.00;0.62;0.00;0.00;0.62;5.20;1.53;;;22.40;27.10;;;;;;2251484;61;20383;-54
2023/01/13 04:50:59;0.00;0.00;0.62;0.00;0.00;0.62;3.10;1.27;;;22.30;27.00;;;;;;2251932;61;20838;-57
2023/01/13 04:53:45;0.00;0.00;0.62;0.00;0.00;0.62;7.23;2.73;;;22.30;27.60;;;;;;2251434;61;20879;-55
2023/01/13 04:56:30;0.00;0.00;0.62;0.00;0.00;0.62;5.77;1.90;;;22.30;27.00;;;;;;2252282;61;20494;-55
2023/01/13 04:59:15;0.00;0.00;0.62;0.00;0.00;0.62;4.90;2.17;;;22.20;27.00;;;;;;2252088;61;20405;-57
2023/01/13 05:01:59;0.00;0.00;0.62;0.00;0.00;0.62;3.60;1.43;;;22.20;27.10;;;;;;2252002;61;20486;-56
2023/01/13 05:04:46;0.00;0.00;0.62;0.00;0.00;0.62;4.97;1.77;;;22.20;27.20;;;;;;2251975;61;20391;-56
2023/01/13 05:07:31;0.00;0.00;0.62;0.00;0.00;0.62;3.90;1.60;;;22.20;27.20;;;;;;2251641;61;20421;-59
2023/01/13 05:10:16;0.00;0.00;0.62;0.00;0.00;0.62;4.30;1.60;;;22.20;27.30;;;;;;2251814;61;20925;-59
2023/01/13 05:19:13;0.00;0.00;0.62;0.00;0.00;0.62;4.90;2.40;;;22.20;27.30;;;;;;2251996;61;20915;-59
2023/01/13 05:25:23;0.00;0.00;0.62;0.00;0.00;0.62;3.97;1.90;;;22.10;27.20;;;;;;2251941;61;20422;-55
2023/01/13 05:28:08;0.00;0.00;0.62;0.00;0.00;0.62;6.20;2.03;;;22.10;27.30;;;;;;2251770;61;20366;-59
2023/01/13 05:30:53;0.00;0.00;0.62;0.00;0.00;0.62;4.63;1.70;;;22.10;27.30;;;;;;2251157;61;20487;-54
2023/01/13 05:33:38;0.00;0.00;0.62;0.00;0.00;0.62;4.97;1.73;;;22.10;27.30;;;;;;2251237;61;20383;-57
2023/01/13 05:36:22;0.00;0.00;0.62;0.00;0.00;0.62;4.13;2.00;;;22.00;27.30;;;;;;2252101;61;20688;-56
2023/01/13 05:39:08;0.00;0.00;0.62;0.00;0.00;0.62;2.70;1.30;;;22.00;27.30;;;;;;2251814;61;20386;-58
2023/01/13 05:44:56;0.00;0.00;0.62;0.00;0.00;0.62;2.80;1.10;;;22.10;27.50;;;;;;2251763;61;20378;-56
2023/01/13 05:47:41;0.00;0.00;0.62;0.00;0.00;0.62;5.33;1.90;;;22.00;27.40;;;;;;2251429;61;20362;-56
2023/01/13 05:50:26;0.00;0.00;0.62;0.00;0.00;0.62;3.93;2.13;;;22.00;27.30;;;;;;2252197;61;20422;-59
2023/01/13 05:53:12;0.00;0.00;0.62;0.00;0.00;0.62;6.50;2.40;;;22.00;27.30;;;;;;2251611;61;20942;-58
2023/01/13 05:55:59;0.00;0.00;0.62;0.00;0.00;0.62;4.67;1.80;;;22.00;27.40;;;;;;2251722;61;20895;-59
2023/01/13 05:58:44;0.00;0.00;0.62;0.00;0.00;0.62;7.07;2.40;;;22.00;27.30;;;;;;2251957;61;20803;-58
2023/01/13 06:01:29;0.00;0.00;0.62;0.00;0.00;0.62;5.50;2.40;;;22.00;27.20;;;;;;2251854;61;20382;-56
2023/01/13 06:04:13;0.00;0.00;0.62;0.00;0.00;0.62;6.57;2.13;;;22.00;27.20;;;;;;2252461;61;20468;-55
2023/01/13 06:06:58;0.00;0.00;0.62;0.00;0.00;0.62;5.13;2.13;;;22.00;27.10;;;;;;2251587;61;20791;-57
2023/01/13 06:09:42;0.00;0.00;0.62;0.00;0.00;0.62;3.33;1.60;;;21.90;27.00;;;;;;2251782;61;20374;-56
2023/01/13 06:12:28;0.00;0.00;0.62;0.00;0.00;0.62;5.27;2.13;;;21.90;26.90;;;;;;2251956;61;20390;-57
2023/01/13 06:15:13;0.00;0.00;0.62;0.00;0.00;0.62;5.07;2.20;;;21.90;26.80;;;;;;2251433;61;20403;-56
2023/01/13 06:18:00;0.00;0.00;0.62;0.00;0.00;0.62;6.13;2.60;;;21.80;26.80;;;;;;2251647;61;20418;-58
2023/01/13 06:20:46;0.00;0.00;0.62;0.00;0.00;0.62;7.10;3.20;;;21.80;26.80;;;;;;2252043;61;21007;-57
2023/01/13 06:23:33;0.00;0.00;0.62;0.00;0.00;0.62;6.10;2.90;;;21.70;26.70;;;;;;2251466;61;20844;-59
2023/01/13 06:26:21;0.00;0.00;0.62;0.00;0.00;0.62;7.60;2.50;;;21.70;26.70;;;;;;2252267;61;20782;-58
2023/01/13 06:29:08;0.00;0.00;0.62;0.00;0.00;0.62;4.90;2.30;;;21.70;26.60;;;;;;2251123;61;20382;-55
2023/01/13 06:31:53;0.00;0.00;0.62;0.00;0.00;0.62;4.10;2.40;;;21.60;26.60;;;;;;2251792;61;20395;-54
2023/01/13 06:34:41;0.00;0.00;0.62;0.00;0.00;0.62;6.00;2.17;;;21.60;26.70;;;;;;2252182;61;20811;-56
2023/01/13 06:37:27;0.00;0.00;0.62;0.00;0.00;0.62;5.43;2.53;;;21.60;26.70;;;;;;2251401;61;20371;-54
2023/01/13 06:40:14;0.00;0.00;0.62;0.00;0.00;0.62;6.73;2.40;;;21.50;26.70;;;;;;2251540;61;20374;-58
2023/01/13 06:43:13;0.00;0.00;0.62;0.00;0.00;0.62;6.90;2.40;;;21.50;26.80;;;;;;2251734;61;20398;-57
2023/01/13 06:46:01;0.00;0.00;0.62;0.00;0.00;0.62;6.37;2.50;;;21.50;26.90;;;;;;2251478;61;20375;-60
2023/01/13 06:48:46;0.00;0.00;0.62;0.00;0.00;0.62;8.43;2.03;;;21.50;26.90;;;;;;2251851;61;20370;-53
2023/01/13 06:51:30;0.00;0.00;0.62;0.00;0.00;0.62;5.90;2.70;;;21.40;26.70;;;;;;2251466;61;20371;-57
2023/01/13 06:54:15;0.00;0.00;0.62;0.00;0.00;0.62;6.57;2.30;;;21.40;26.80;;;;;;2251765;61;20374;-58
2023/01/13 06:57:00;0.00;0.00;0.62;0.00;0.00;0.62;5.30;2.33;;;21.40;26.80;;;;;;2251501;61;20789;-59
2023/01/13 06:59:44;0.00;0.00;0.62;0.00;0.00;0.62;5.10;2.47;;;21.40;26.70;;;;;;2251755;61;20418;-55
2023/01/13 07:02:30;0.00;0.00;0.62;0.00;0.00;0.62;6.37;1.90;;;21.40;26.80;;;;;;2251523;61;20954;-57
2023/01/13 07:05:17;0.00;0.00;0.62;0.00;0.00;0.62;5.63;2.40;;;21.40;26.80;;;;;;2251781;61;20417;-57
2023/01/13 07:08:01;0.00;0.00;0.62;0.00;0.00;0.62;4.47;1.67;;;21.30;26.80;;;;;;2251294;61;20391;-56
2023/01/13 07:10:46;0.00;0.00;0.62;0.00;0.00;0.62;7.00;1.83;;;21.30;26.70;;;;;;2251542;61;20374;-56
2023/01/13 07:16:36;0.00;0.00;0.62;0.00;0.00;0.62;3.77;1.90;;;21.30;26.70;;;;;;2251758;61;20379;-57
2023/01/13 07:19:22;0.00;0.00;0.62;0.00;0.00;0.62;3.57;1.73;;;21.30;26.70;;;;;;2251692;61;20399;-59
2023/01/13 07:22:07;0.00;0.00;0.62;0.00;0.00;0.62;4.80;1.90;;;21.20;26.70;;;;;;2251648;61;20417;-53
2023/01/13 07:24:52;0.00;0.00;0.62;0.00;0.00;0.62;4.20;2.10;;;21.20;26.70;;;;;;2251527;61;20430;-58
2023/01/13 07:27:37;0.00;0.00;0.62;0.00;0.00;0.62;3.53;1.47;;;21.20;26.60;;;;;;2251671;61;20367;-55
2023/01/13 07:30:21;0.00;0.00;0.62;0.00;0.00;0.62;4.83;1.90;;;21.20;26.60;;;;;;2251637;61;20374;-61
2023/01/13 07:33:06;0.00;0.00;0.62;0.00;0.00;0.62;4.73;1.40;;;21.20;26.70;;;;;;2251831;61;20977;-59
2023/01/13 07:35:58;0.00;0.00;0.62;0.00;0.00;0.62;4.00;1.80;;;21.10;26.50;;;;;;2251588;61;20895;-60
2023/01/13 07:38:43;0.00;0.00;0.62;0.00;0.00;0.62;4.30;1.50;;;21.10;26.50;;;;;;2251335;61;20394;-59
2023/01/13 07:44:32;0.00;0.00;0.62;0.00;0.00;0.62;4.33;1.90;;;21.00;26.50;;;;;;2251512;61;20502;-59
2023/01/13 07:47:18;0.00;0.00;0.62;0.00;0.00;0.62;4.73;1.87;;;21.00;26.50;;;;;;2251296;61;20410;-57
2023/01/13 07:50:05;0.00;0.00;0.62;0.00;0.00;0.62;3.50;1.50;;;21.00;26.50;;;;;;2251704;61;20437;-56
2023/01/13 07:52:51;0.00;0.00;0.62;0.00;0.00;0.62;3.80;1.70;;;21.00;26.50;;;;;;2250731;61;20441;-60
2023/01/13 07:55:40;0.00;0.00;0.62;0.00;0.00;0.62;3.80;1.40;;;21.00;26.50;;;;;;2251321;61;20402;-59
2023/01/13 07:58:26;0.00;0.00;0.62;0.00;0.00;0.62;6.80;2.30;;;21.00;27.10;;;;;;2251354;61;20522;-58
2023/01/13 08:01:13;0.00;0.00;0.62;0.00;0.00;0.62;4.40;1.40;;;20.90;26.50;;;;;;2251453;61;20366;-57
2023/01/13 08:03:58;0.00;0.00;0.62;0.00;0.00;0.62;3.87;1.77;;;20.90;26.50;;;;;;2251688;61;20413;-56
2023/01/13 08:06:42;0.00;0.00;0.62;0.00;0.00;0.62;5.27;1.87;;;20.90;26.50;;;;;;2251431;61;20367;-59
2023/01/13 08:09:29;0.00;0.00;0.62;0.00;0.00;0.62;3.10;1.43;;;20.90;26.40;;;;;;2251406;61;21066;-56
2023/01/13 08:15:17;0.00;0.00;0.62;0.00;0.00;0.62;4.10;1.80;;;20.80;26.40;;;;;;2251473;61;20394;-55
2023/01/13 08:18:02;0.00;0.00;0.62;0.00;0.00;0.62;6.17;1.50;;;20.80;26.50;;;;;;2251536;61;20390;-55
2023/01/13 08:20:47;0.00;0.00;0.62;0.00;0.00;0.62;3.13;1.50;;;20.80;26.40;;;;;;2251347;61;20414;-52
2023/01/13 08:23:32;0.00;0.00;0.62;0.00;0.00;0.62;3.87;1.73;;;20.80;26.40;;;;;;2251125;61;20445;-53
2023/01/13 08:26:18;0.00;0.00;0.62;0.00;0.00;0.62;3.97;1.60;;;20.80;26.50;;;;;;2252067;61;20763;-59
2023/01/13 08:29:03;0.00;0.00;0.62;0.00;0.00;0.62;4.27;1.80;;;20.80;26.50;;;;;;2631265;45;20375;-57
2023/01/13 08:31:47;0.00;0.00;0.62;0.00;0.00;0.62;6.57;2.50;;;20.80;26.50;;;;;;2252078;61;20782;-60
2023/01/13 08:34:32;0.00;0.00;0.62;0.00;0.00;0.62;6.17;1.80;;;20.80;26.50;;;;;;2252080;61;20400;-55
2023/01/13 08:37:17;0.00;0.00;0.62;0.00;0.00;0.62;2.40;1.07;;;20.80;26.40;;;;;;2251787;61;20379;-55
2023/01/13 08:40:01;0.00;0.00;0.62;0.00;0.00;0.62;6.57;2.00;;;20.70;26.20;;;;;;2251870;61;20465;-61
2023/01/13 08:42:47;0.00;0.00;0.62;0.00;0.00;0.62;4.27;1.73;;;20.70;26.30;;;;;;2481586;53;20383;-59
2023/01/13 08:45:33;0.00;0.00;0.62;0.00;0.00;0.62;2.33;1.57;;;20.70;26.40;;;;;;2248262;61;20464;-64
2023/01/13 08:48:17;0.00;0.00;0.62;0.00;0.00;0.62;4.90;1.33;;;20.70;26.50;;;;;;2247925;61;20351;-64
2023/01/13 08:51:05;0.00;0.00;0.62;0.00;0.00;0.62;6.10;1.70;;;20.70;26.60;;;;;;2248042;61;20384;-54
2023/01/13 08:53:50;0.00;0.00;0.62;0.00;0.00;0.62;6.27;2.17;;;20.70;26.50;;;;;;2248314;61;20823;-54
2023/01/13 08:56:35;0.00;0.00;0.62;0.00;0.00;0.62;4.70;1.70;;;20.60;26.40;;;;;;2248380;61;20363;-63
2023/01/13 08:59:21;0.00;0.00;0.62;0.00;0.00;0.62;6.63;2.03;;;20.60;26.30;;;;;;2248407;61;20391;-65
2023/01/13 09:02:12;0.00;0.00;0.62;0.00;0.00;0.62;7.43;2.20;;;20.60;26.10;;;;;;2248507;61;20983;-63
2023/01/13 09:04:59;0.00;0.00;0.62;0.00;0.00;0.62;3.93;1.77;;;20.60;25.90;;;;;;2247858;61;20364;-63
2023/01/13 09:07:44;0.00;0.00;0.62;0.00;0.00;0.62;5.33;2.10;;;20.50;26.00;;;;;;2247824;61;20900;-62
2023/01/13 09:10:29;0.00;0.00;0.62;0.00;0.00;0.62;4.73;1.90;;;20.50;26.10;;;;;;2248343;61;20364;-64
2023/01/13 09:13:16;0.00;0.00;0.62;0.00;0.00;0.62;5.13;1.70;;;20.50;26.30;;;;;;2247854;61;20439;-63
2023/01/13 09:16:03;0.00;0.00;0.62;0.00;0.00;0.62;5.90;1.67;;;20.50;26.30;;;;;;2248151;61;20368;-58
2023/01/13 09:18:48;0.00;0.00;0.62;0.00;0.00;0.62;8.20;2.37;;;20.40;26.20;;;;;;2247991;61;20392;-62
2023/01/13 09:21:32;0.00;0.00;0.62;0.00;0.00;0.62;5.50;2.27;;;20.40;26.20;;;;;;2248066;61;20422;-64
2023/01/13 09:24:17;0.00;0.00;0.62;0.00;0.00;0.62;8.20;2.07;;;20.40;26.20;;;;;;2248454;61;20375;-62
2023/01/13 09:27:02;0.00;0.00;0.62;0.00;0.00;0.62;4.77;1.90;;;20.40;26.20;;;;;;2247539;61;20399;-62
2023/01/13 09:29:49;0.00;0.00;0.62;0.00;0.00;0.62;2.70;1.60;;;20.40;26.20;;;;;;2248007;61;20469;-65
2023/01/13 09:32:37;0.00;0.00;0.62;0.00;0.00;0.62;3.47;2.10;;;20.40;26.20;;;;;;2248327;61;20476;-64
2023/01/13 09:35:21;0.00;0.00;0.62;0.00;0.00;0.62;4.43;2.00;;;20.40;26.20;;;;;;2248034;61;20403;-57
2023/01/13 09:38:06;0.00;0.00;0.62;0.00;0.00;0.62;9.20;2.10;;;20.40;26.20;;;;;;2247749;61;20787;-64
2023/01/13 09:40:52;0.00;0.00;0.62;0.00;0.00;0.62;6.33;2.07;;;20.40;26.10;;;;;;2248159;61;20371;-59
2023/01/13 09:43:54;0.00;0.00;0.62;0.00;0.00;0.62;3.03;2.10;;;20.40;26.10;;;;;;2247892;61;20438;-62
2023/01/13 09:46:46;0.00;0.00;0.62;0.00;0.00;0.62;3.67;1.50;;;20.40;26.10;;;;;;2248082;61;20367;-62
2023/01/13 09:49:36;0.00;0.00;0.62;0.00;0.00;0.62;5.07;1.50;;;20.40;26.30;;;;;;2247204;61;20933;-65
2023/01/13 09:52:23;0.00;0.00;0.62;0.00;0.00;0.62;2.90;1.57;;;20.40;26.40;;;;;;2247078;61;20423;-64
2023/01/13 09:55:14;0.00;0.00;0.62;0.00;0.00;0.62;2.23;1.33;;;20.50;26.60;;;;;;2247934;61;20517;-67
2023/01/13 09:58:02;0.00;0.00;0.62;0.00;0.00;0.62;2.40;1.00;;;20.50;26.60;;;;;;2251337;61;20909;-66
2023/01/13 10:01:02;0.00;0.00;0.62;0.00;0.00;0.62;3.83;1.10;;;20.60;26.70;;;;;;2251821;61;20358;-62
2023/01/13 10:03:48;0.00;0.00;0.62;0.00;0.00;0.62;1.77;0.97;;;20.60;26.70;;;;;;2251778;61;20382;-62
2023/01/13 10:06:37;0.00;0.00;0.62;0.00;0.00;0.62;3.17;1.17;;;20.70;26.90;;;;;;2251680;61;20410;-66
2023/01/13 10:09:27;0.00;0.00;0.62;0.00;0.00;0.62;3.03;1.40;;;20.80;26.90;;;;;;2252140;61;20409;-65
2023/01/13 10:15:25;0.00;0.00;0.62;0.00;0.00;0.62;2.20;0.97;;;20.90;27.00;;;;;;2248160;61;20914;-57
2023/01/13 10:18:16;0.00;0.00;0.62;0.00;0.00;0.62;3.80;1.80;;;20.90;27.00;;;;;;2251121;61;20386;-63
2023/01/13 10:21:19;0.00;0.00;0.62;0.00;0.00;0.62;3.40;1.70;;;21.00;27.10;;;;;;2249487;61;20710;-60
2023/01/13 10:24:15;0.00;0.00;0.62;0.00;0.00;0.62;2.23;1.57;;;21.00;27.00;;;;;;2251501;61;20550;-65
2023/01/13 10:27:04;0.00;0.00;0.62;0.00;0.00;0.62;2.47;1.33;;;21.00;27.10;;;;;;2250911;61;20371;-65
2023/01/13 10:29:49;0.00;0.00;0.62;0.00;0.00;0.62;3.30;1.40;;;21.10;27.10;;;;;;2251801;61;20418;-64
2023/01/13 10:32:34;0.00;0.00;0.62;0.00;0.00;0.62;2.70;1.67;;;21.20;27.20;;;;;;2255001;61;20385;-67
2023/01/13 10:35:49;0.00;0.00;0.62;0.00;0.00;0.62;1.90;1.10;;;21.20;27.20;;;;;;2255366;61;20362;-65
2023/01/13 10:38:19;0.00;0.00;0.62;0.00;0.00;0.62;3.23;1.40;;;21.20;27.20;;;;;;2255974;61;20476;-59
2023/01/13 10:40:53;0.00;0.00;0.62;0.00;0.00;0.62;4.57;1.87;;;21.30;27.20;;;;;;2255447;61;20370;-64
2023/01/13 10:43:20;0.00;0.00;0.62;0.00;0.00;0.62;2.50;1.23;;;21.30;27.20;;;;;;2255765;61;20401;-65
2023/01/13 10:46:00;0.00;0.00;0.62;0.00;0.00;0.62;4.23;1.63;;;21.30;27.20;;;;;;2255985;61;20395;-67
2023/01/13 10:48:41;0.00;0.00;0.62;0.00;0.00;0.62;2.60;1.20;;;21.40;27.20;;;;;;2254621;61;20353;-66
2023/01/13 10:51:18;0.00;0.00;0.62;0.00;0.00;0.62;3.40;1.40;;;21.40;27.20;;;;;;2255704;61;20741;-66
2023/01/13 10:54:21;0.00;0.00;0.62;0.00;0.00;0.62;2.00;1.00;;;21.50;27.20;;;;;;2255186;61;20806;-57
2023/01/13 10:57:19;0.00;0.00;0.62;0.00;0.00;0.62;2.53;1.00;;;21.50;27.20;;;;;;2255495;61;20461;-58
2023/01/13 11:00:24;0.00;0.00;0.62;0.00;0.00;0.62;3.23;1.47;;;21.50;27.10;;;;;;2255794;61;20799;-58
2023/01/13 11:03:19;0.00;0.00;0.62;0.00;0.00;0.62;3.57;1.50;;;21.60;27.20;;;;;;2255837;61;20826;-65
2023/01/13 11:06:04;0.00;0.00;0.62;0.00;0.00;0.62;2.47;1.50;;;21.60;27.10;;;;;;2255777;61;20886;-65
2023/01/13 11:08:54;0.00;0.00;0.62;0.00;0.00;0.62;2.93;1.60;;;21.60;27.10;;;;;;2255099;61;20382;-66
2023/01/13 11:11:42;0.00;0.00;0.62;0.00;0.00;0.62;3.20;2.17;;;21.70;27.20;;;;;;2255738;61;20373;-62
2023/01/13 11:14:40;0.00;0.00;0.62;0.00;0.00;0.62;2.77;1.40;;;21.70;27.70;;;;;;2255469;61;21036;-68
2023/01/13 11:17:40;0.00;0.00;0.62;0.00;0.00;0.62;4.70;1.77;;;21.70;27.20;;;;;;2250433;61;20919;-69
2023/01/13 11:20:32;0.00;0.00;0.62;0.00;0.00;0.62;2.70;1.43;;;21.70;27.20;;;;;;2253105;61;20957;-68
2023/01/13 11:23:26;0.00;0.00;0.62;0.00;0.00;0.62;2.77;1.70;;;21.80;27.20;;;;;;2254158;61;20449;-65
2023/01/13 11:26:17;0.00;0.00;0.62;0.00;0.00;0.62;2.20;1.20;;;21.80;27.20;;;;;;2253393;61;20769;-63
2023/01/13 11:29:12;0.00;0.00;0.62;0.00;0.00;0.62;2.60;1.50;;;21.90;27.20;;;;;;2256226;61;20370;-63
2023/01/13 11:32:10;0.00;0.00;0.62;0.00;0.00;0.62;2.47;1.43;;;21.90;27.20;;;;;;2255844;61;20452;-65
2023/01/13 11:35:00;0.00;0.00;0.62;0.00;0.00;0.62;2.70;1.40;;;21.90;27.20;;;;;;2256636;61;20486;-65
2023/01/13 11:37:52;0.00;0.00;0.62;0.00;0.00;0.62;2.47;1.30;;;21.90;27.20;;;;;;2256374;61;20362;-65
2023/01/13 11:40:42;0.00;0.00;0.62;0.00;0.00;0.62;3.60;1.63;;;21.90;27.20;;;;;;2255731;61;20370;-67
2023/01/13 11:43:35;0.00;0.00;0.62;0.00;0.00;0.62;2.20;1.40;;;22.00;27.20;;;;;;2250240;61;20986;-60